sensor_id;sensor_type;location;lat;lon;timestamp;temperature;humidity
326;DHT22;150;52.352;14.058;2023-03-23T00:01:21;14.10;26.10
326;DHT22;150;52.352;14.058;2023-03-23T00:03:53;14.10;26.20
326;DHT22;150;52.352;14.058;2023-03-23T00:06:29;14.20;25.90
326;DHT22;150;52.352;14.058;2023-03-23T00:08:58;14.10;26.00
326;DHT22;150;52.352;14.058;2023-03-23T00:11:32;14.10;25.90
326;DHT22;150;52.352;14.058;2023-03-23T00:14:01;14.10;25.90
326;DHT22;150;52.352;14.058;2023-03-23T00:16:35;14.10;26.00
326;DHT22;150;52.352;14.058;2023-03-23T00:19:11;14.20;26.00
326;DHT22;150;52.352;14.058;2023-03-23T00:21:42;14.20;25.70
326;DHT22;150;52.352;14.058;2023-03-23T00:24:16;14.10;25.70
326;DHT22;150;52.352;14.058;2023-03-23T00:26:45;14.10;25.70
326;DHT22;150;52.352;14.058;2023-03-23T00:29:15;14.10;25.80
326;DHT22;150;52.352;14.058;2023-03-23T00:31:43;14.10;25.90
326;DHT22;150;52.352;14.058;2023-03-23T00:34:17;14.10;26.00
326;DHT22;150;52.352;14.058;2023-03-23T00:36:46;14.00;26.10
326;DHT22;150;52.352;14.058;2023-03-23T00:39:17;14.00;26.20
326;DHT22;150;52.352;14.058;2023-03-23T00:41:45;14.00;26.20
326;DHT22;150;52.352;14.058;2023-03-23T00:44:17;14.00;25.90
326;DHT22;150;52.352;14.058;2023-03-23T00:46:44;14.00;26.20
326;DHT22;150;52.352;14.058;2023-03-23T00:49:14;14.00;26.20
326;DHT22;150;52.352;14.058;2023-03-23T00:51:46;13.90;26.20
326;DHT22;150;52.352;14.058;2023-03-23T00:54:12;13.90;26.20
326;DHT22;150;52.352;14.058;2023-03-23T00:56:39;13.90;26.20
326;DHT22;150;52.352;14.058;2023-03-23T00:59:06;13.90;26.20
326;DHT22;150;52.352;14.058;2023-03-23T01:01:33;13.90;26.20
326;DHT22;150;52.352;14.058;2023-03-23T01:04:01;13.80;26.10
326;DHT22;150;52.352;14.058;2023-03-23T01:06:29;13.80;26.10
326;DHT22;150;52.352;14.058;2023-03-23T01:08:58;13.80;26.10
326;DHT22;150;52.352;14.058;2023-03-23T01:11:26;13.80;26.10
326;DHT22;150;52.352;14.058;2023-03-23T01:13:53;13.80;26.10
326;DHT22;150;52.352;14.058;2023-03-23T01:16:34;13.70;26.00
326;DHT22;150;52.352;14.058;2023-03-23T01:19:03;13.70;26.00
326;DHT22;150;52.352;14.058;2023-03-23T01:21:33;13.70;26.20
326;DHT22;150;52.352;14.058;2023-03-23T01:24:02;14.20;26.40
326;DHT22;150;52.352;14.058;2023-03-23T01:26:37;13.70;26.20
326;DHT22;150;52.352;14.058;2023-03-23T01:29:05;13.70;26.00
326;DHT22;150;52.352;14.058;2023-03-23T01:31:35;13.60;26.90
326;DHT22;150;52.352;14.058;2023-03-23T01:34:04;13.80;26.10
326;DHT22;150;52.352;14.058;2023-03-23T01:36:33;13.80;26.70
326;DHT22;150;52.352;14.058;2023-03-23T01:39:04;13.80;26.10
326;DHT22;150;52.352;14.058;2023-03-23T01:41:35;13.80;26.10
326;DHT22;150;52.352;14.058;2023-03-23T01:44:04;13.80;26.10
326;DHT22;150;52.352;14.058;2023-03-23T01:46:39;13.90;26.20
326;DHT22;150;52.352;14.058;2023-03-23T01:49:17;13.90;26.20
326;DHT22;150;52.352;14.058;2023-03-23T01:51:53;13.80;26.20
326;DHT22;150;52.352;14.058;2023-03-23T01:54:23;13.70;26.50
326;DHT22;150;52.352;14.058;2023-03-23T01:56:53;13.60;26.00
326;DHT22;150;52.352;14.058;2023-03-23T01:59:22;13.60;26.40
326;DHT22;150;52.352;14.058;2023-03-23T02:01:56;13.60;26.50
326;DHT22;150;52.352;14.058;2023-03-23T02:04:26;13.50;26.70
326;DHT22;150;52.352;14.058;2023-03-23T02:06:59;13.40;26.90
326;DHT22;150;52.352;14.058;2023-03-23T02:09:28;13.40;27.00
326;DHT22;150;52.352;14.058;2023-03-23T02:12:03;13.30;26.90
326;DHT22;150;52.352;14.058;2023-03-23T02:14:30;13.30;27.30
326;DHT22;150;52.352;14.058;2023-03-23T02:17:10;13.30;27.20
326;DHT22;150;52.352;14.058;2023-03-23T02:20:01;13.20;27.40
326;DHT22;150;52.352;14.058;2023-03-23T02:22:57;13.20;27.40
326;DHT22;150;52.352;14.058;2023-03-23T02:25:56;13.20;27.50
326;DHT22;150;52.352;14.058;2023-03-23T02:28:55;13.20;27.60
326;DHT22;150;52.352;14.058;2023-03-23T02:31:50;13.10;27.60
326;DHT22;150;52.352;14.058;2023-03-23T02:34:30;13.10;27.70
326;DHT22;150;52.352;14.058;2023-03-23T02:37:03;13.10;27.90
326;DHT22;150;52.352;14.058;2023-03-23T02:39:40;13.10;27.90
326;DHT22;150;52.352;14.058;2023-03-23T02:42:11;13.10;27.90
326;DHT22;150;52.352;14.058;2023-03-23T02:44:47;13.10;27.80
326;DHT22;150;52.352;14.058;2023-03-23T02:47:18;13.10;27.90
326;DHT22;150;52.352;14.058;2023-03-23T02:49:55;13.00;27.90
326;DHT22;150;52.352;14.058;2023-03-23T02:52:29;13.00;27.80
326;DHT22;150;52.352;14.058;2023-03-23T02:54:58;13.00;27.70
326;DHT22;150;52.352;14.058;2023-03-23T02:57:33;13.00;27.80
326;DHT22;150;52.352;14.058;2023-03-23T03:00:00;13.00;27.70
326;DHT22;150;52.352;14.058;2023-03-23T03:02:28;13.20;27.60
326;DHT22;150;52.352;14.058;2023-03-23T03:07:50;13.20;27.70
326;DHT22;150;52.352;14.058;2023-03-23T03:10:31;13.30;27.50
326;DHT22;150;52.352;14.058;2023-03-23T03:13:10;13.30;27.40
326;DHT22;150;52.352;14.058;2023-03-23T03:15:43;13.90;27.50
326;DHT22;150;52.352;14.058;2023-03-23T03:18:15;13.50;27.10
326;DHT22;150;52.352;14.058;2023-03-23T03:20:49;13.50;27.20
326;DHT22;150;52.352;14.058;2023-03-23T03:23:22;13.50;27.00
326;DHT22;150;52.352;14.058;2023-03-23T03:25:57;13.50;27.00
326;DHT22;150;52.352;14.058;2023-03-23T03:28:25;13.60;26.90
326;DHT22;150;52.352;14.058;2023-03-23T03:30:56;13.60;26.90
326;DHT22;150;52.352;14.058;2023-03-23T03:33:27;13.60;26.70
326;DHT22;150;52.352;14.058;2023-03-23T03:36:02;13.60;26.70
326;DHT22;150;52.352;14.058;2023-03-23T03:38:48;13.70;26.50
326;DHT22;150;52.352;14.058;2023-03-23T03:41:19;13.70;26.00
326;DHT22;150;52.352;14.058;2023-03-23T03:43:46;13.60;26.40
326;DHT22;150;52.352;14.058;2023-03-23T03:46:13;13.70;26.60
326;DHT22;150;52.352;14.058;2023-03-23T03:48:40;13.60;26.90
326;DHT22;150;52.352;14.058;2023-03-23T03:51:08;13.60;27.40
326;DHT22;150;52.352;14.058;2023-03-23T03:53:36;13.60;27.90
326;DHT22;150;52.352;14.058;2023-03-23T03:56:03;13.60;27.80
326;DHT22;150;52.352;14.058;2023-03-23T03:58:31;13.60;28.20
326;DHT22;150;52.352;14.058;2023-03-23T04:00:58;13.60;28.40
326;DHT22;150;52.352;14.058;2023-03-23T04:03:26;13.60;28.60
326;DHT22;150;52.352;14.058;2023-03-23T04:05:54;13.60;29.10
326;DHT22;150;52.352;14.058;2023-03-23T04:08:26;13.60;28.90
326;DHT22;150;52.352;14.058;2023-03-23T04:10:53;13.60;28.90
326;DHT22;150;52.352;14.058;2023-03-23T04:13:20;13.60;28.90
326;DHT22;150;52.352;14.058;2023-03-23T04:15:47;13.70;28.80
326;DHT22;150;52.352;14.058;2023-03-23T04:18:16;13.60;28.80
326;DHT22;150;52.352;14.058;2023-03-23T04:20:44;13.70;29.00
326;DHT22;150;52.352;14.058;2023-03-23T04:23:12;13.70;28.60
326;DHT22;150;52.352;14.058;2023-03-23T04:25:40;13.70;28.60
326;DHT22;150;52.352;14.058;2023-03-23T04:28:08;13.70;28.10
326;DHT22;150;52.352;14.058;2023-03-23T04:30:36;13.70;27.90
326;DHT22;150;52.352;14.058;2023-03-23T04:33:02;13.70;28.10
326;DHT22;150;52.352;14.058;2023-03-23T04:35:30;13.60;28.40
326;DHT22;150;52.352;14.058;2023-03-23T04:37:57;13.70;28.00
326;DHT22;150;52.352;14.058;2023-03-23T04:40:23;13.70;28.00
326;DHT22;150;52.352;14.058;2023-03-23T04:42:51;13.80;27.70
326;DHT22;150;52.352;14.058;2023-03-23T04:45:23;13.80;27.50
326;DHT22;150;52.352;14.058;2023-03-23T04:47:51;13.80;27.60
326;DHT22;150;52.352;14.058;2023-03-23T04:50:23;13.80;27.30
326;DHT22;150;52.352;14.058;2023-03-23T04:52:51;13.80;27.30
326;DHT22;150;52.352;14.058;2023-03-23T04:55:20;13.70;27.00
326;DHT22;150;52.352;14.058;2023-03-23T04:57:47;13.80;27.40
326;DHT22;150;52.352;14.058;2023-03-23T05:00:16;13.80;27.60
326;DHT22;150;52.352;14.058;2023-03-23T05:02:44;13.80;27.10
326;DHT22;150;52.352;14.058;2023-03-23T05:05:12;13.80;27.50
326;DHT22;150;52.352;14.058;2023-03-23T05:07:40;13.90;27.50
326;DHT22;150;52.352;14.058;2023-03-23T05:10:09;13.90;27.30
326;DHT22;150;52.352;14.058;2023-03-23T05:12:36;14.00;27.30
326;DHT22;150;52.352;14.058;2023-03-23T05:15:03;14.00;26.90
326;DHT22;150;52.352;14.058;2023-03-23T05:17:32;14.00;27.10
326;DHT22;150;52.352;14.058;2023-03-23T05:19:59;14.00;26.80
326;DHT22;150;52.352;14.058;2023-03-23T05:22:27;14.00;26.80
326;DHT22;150;52.352;14.058;2023-03-23T05:24:57;14.00;26.80
326;DHT22;150;52.352;14.058;2023-03-23T05:27:24;14.00;26.90
326;DHT22;150;52.352;14.058;2023-03-23T05:29:55;13.90;26.60
326;DHT22;150;52.352;14.058;2023-03-23T05:32:23;14.00;27.00
326;DHT22;150;52.352;14.058;2023-03-23T05:34:55;14.00;26.90
326;DHT22;150;52.352;14.058;2023-03-23T05:37:22;14.00;26.70
326;DHT22;150;52.352;14.058;2023-03-23T05:39:49;14.10;26.40
326;DHT22;150;52.352;14.058;2023-03-23T05:42:19;14.10;26.70
326;DHT22;150;52.352;14.058;2023-03-23T05:44:45;14.00;26.60
326;DHT22;150;52.352;14.058;2023-03-23T05:47:12;14.00;26.70
326;DHT22;150;52.352;14.058;2023-03-23T05:49:41;14.00;26.70
326;DHT22;150;52.352;14.058;2023-03-23T05:52:10;14.00;26.60
326;DHT22;150;52.352;14.058;2023-03-23T05:54:36;14.00;26.80
326;DHT22;150;52.352;14.058;2023-03-23T05:57:03;14.00;26.70
326;DHT22;150;52.352;14.058;2023-03-23T05:59:31;14.10;26.80
326;DHT22;150;52.352;14.058;2023-03-23T06:01:59;14.10;26.70
326;DHT22;150;52.352;14.058;2023-03-23T06:04:26;14.20;26.90
326;DHT22;150;52.352;14.058;2023-03-23T06:06:52;14.10;26.80
326;DHT22;150;52.352;14.058;2023-03-23T06:09:20;14.20;27.20
326;DHT22;150;52.352;14.058;2023-03-23T06:11:48;14.30;27.20
326;DHT22;150;52.352;14.058;2023-03-23T06:14:15;14.30;27.40
326;DHT22;150;52.352;14.058;2023-03-23T06:16:43;14.20;27.80
326;DHT22;150;52.352;14.058;2023-03-23T06:19:09;14.30;28.70
326;DHT22;150;52.352;14.058;2023-03-23T06:21:36;14.30;29.00
326;DHT22;150;52.352;14.058;2023-03-23T06:24:04;14.40;29.40
326;DHT22;150;52.352;14.058;2023-03-23T06:26:34;14.40;29.40
326;DHT22;150;52.352;14.058;2023-03-23T06:29:02;14.50;29.30
326;DHT22;150;52.352;14.058;2023-03-23T06:31:29;14.50;29.50
326;DHT22;150;52.352;14.058;2023-03-23T06:33:56;14.50;29.40
326;DHT22;150;52.352;14.058;2023-03-23T06:36:23;14.60;29.90
326;DHT22;150;52.352;14.058;2023-03-23T06:38:52;14.60;30.00
326;DHT22;150;52.352;14.058;2023-03-23T06:41:18;14.70;30.40
326;DHT22;150;52.352;14.058;2023-03-23T06:43:47;14.70;30.70
326;DHT22;150;52.352;14.058;2023-03-23T06:46:13;14.80;31.20
326;DHT22;150;52.352;14.058;2023-03-23T06:48:40;14.70;31.20
326;DHT22;150;52.352;14.058;2023-03-23T06:51:11;14.80;31.70
326;DHT22;150;52.352;14.058;2023-03-23T06:53:37;14.80;32.10
326;DHT22;150;52.352;14.058;2023-03-23T06:56:05;14.80;32.70
326;DHT22;150;52.352;14.058;2023-03-23T06:58:32;14.80;33.10
326;DHT22;150;52.352;14.058;2023-03-23T07:01:00;14.80;33.40
326;DHT22;150;52.352;14.058;2023-03-23T07:03:27;14.90;34.10
326;DHT22;150;52.352;14.058;2023-03-23T07:05:54;14.80;34.60
326;DHT22;150;52.352;14.058;2023-03-23T07:08:24;14.80;35.30
326;DHT22;150;52.352;14.058;2023-03-23T07:11:05;14.70;36.40
326;DHT22;150;52.352;14.058;2023-03-23T07:13:46;14.70;36.60
326;DHT22;150;52.352;14.058;2023-03-23T07:16:20;14.60;36.50
326;DHT22;150;52.352;14.058;2023-03-23T07:18:53;14.40;37.20
326;DHT22;150;52.352;14.058;2023-03-23T07:21:25;14.20;38.10
326;DHT22;150;52.352;14.058;2023-03-23T07:23:58;14.00;39.20
326;DHT22;150;52.352;14.058;2023-03-23T07:26:25;13.80;41.20
326;DHT22;150;52.352;14.058;2023-03-23T07:28:52;13.70;42.50
326;DHT22;150;52.352;14.058;2023-03-23T07:31:18;13.80;43.50
326;DHT22;150;52.352;14.058;2023-03-23T07:33:47;13.70;44.10
326;DHT22;150;52.352;14.058;2023-03-23T07:36:14;13.70;45.30
326;DHT22;150;52.352;14.058;2023-03-23T07:38:43;13.80;45.60
326;DHT22;150;52.352;14.058;2023-03-23T07:41:10;13.90;46.10
326;DHT22;150;52.352;14.058;2023-03-23T07:43:37;13.80;46.30
326;DHT22;150;52.352;14.058;2023-03-23T07:46:04;13.70;46.30
326;DHT22;150;52.352;14.058;2023-03-23T07:48:31;13.80;46.40
326;DHT22;150;52.352;14.058;2023-03-23T07:50:59;13.70;46.30
326;DHT22;150;52.352;14.058;2023-03-23T07:53:26;13.70;46.50
326;DHT22;150;52.352;14.058;2023-03-23T07:55:53;13.80;46.90
326;DHT22;150;52.352;14.058;2023-03-23T07:58:20;13.70;46.40
326;DHT22;150;52.352;14.058;2023-03-23T08:00:47;13.80;47.20
326;DHT22;150;52.352;14.058;2023-03-23T08:03:15;13.80;47.80
326;DHT22;150;52.352;14.058;2023-03-23T08:05:42;13.70;48.00
326;DHT22;150;52.352;14.058;2023-03-23T08:08:10;13.80;48.50
326;DHT22;150;52.352;14.058;2023-03-23T08:10:37;13.80;49.10
326;DHT22;150;52.352;14.058;2023-03-23T08:13:04;14.00;49.30
326;DHT22;150;52.352;14.058;2023-03-23T08:15:32;14.10;48.60
326;DHT22;150;52.352;14.058;2023-03-23T08:17:59;14.00;48.60
326;DHT22;150;52.352;14.058;2023-03-23T08:20:27;14.10;48.80
326;DHT22;150;52.352;14.058;2023-03-23T08:22:56;14.20;49.10
326;DHT22;150;52.352;14.058;2023-03-23T08:25:25;14.20;49.20
326;DHT22;150;52.352;14.058;2023-03-23T08:27:52;14.30;49.50
326;DHT22;150;52.352;14.058;2023-03-23T08:30:20;14.40;48.20
326;DHT22;150;52.352;14.058;2023-03-23T08:32:48;14.40;48.00
326;DHT22;150;52.352;14.058;2023-03-23T08:35:16;14.40;48.50
326;DHT22;150;52.352;14.058;2023-03-23T08:37:44;14.40;48.00
326;DHT22;150;52.352;14.058;2023-03-23T08:40:14;14.40;47.00
326;DHT22;150;52.352;14.058;2023-03-23T08:42:46;14.40;48.00
326;DHT22;150;52.352;14.058;2023-03-23T08:45:18;14.50;47.00
326;DHT22;150;52.352;14.058;2023-03-23T08:47:46;14.70;47.20
326;DHT22;150;52.352;14.058;2023-03-23T08:50:17;15.00;45.90
326;DHT22;150;52.352;14.058;2023-03-23T08:52:44;15.10;44.50
326;DHT22;150;52.352;14.058;2023-03-23T08:55:11;15.20;44.60
326;DHT22;150;52.352;14.058;2023-03-23T08:57:38;15.20;44.40
326;DHT22;150;52.352;14.058;2023-03-23T09:00:11;15.30;43.20
326;DHT22;150;52.352;14.058;2023-03-23T09:02:44;15.10;43.40
326;DHT22;150;52.352;14.058;2023-03-23T09:05:11;15.00;43.90
326;DHT22;150;52.352;14.058;2023-03-23T09:07:38;15.00;43.80
326;DHT22;150;52.352;14.058;2023-03-23T09:10:06;14.80;43.80
326;DHT22;150;52.352;14.058;2023-03-23T09:12:33;14.60;44.60
326;DHT22;150;52.352;14.058;2023-03-23T09:15:00;14.60;45.80
326;DHT22;150;52.352;14.058;2023-03-23T09:17:31;14.60;46.20
326;DHT22;150;52.352;14.058;2023-03-23T09:19:58;14.70;46.80
326;DHT22;150;52.352;14.058;2023-03-23T09:22:25;14.70;46.30
326;DHT22;150;52.352;14.058;2023-03-23T09:24:51;14.60;46.80
326;DHT22;150;52.352;14.058;2023-03-23T09:27:18;14.90;46.80
326;DHT22;150;52.352;14.058;2023-03-23T09:29:45;15.20;46.00
326;DHT22;150;52.352;14.058;2023-03-23T09:32:14;15.30;45.40
326;DHT22;150;52.352;14.058;2023-03-23T09:34:42;15.30;44.60
326;DHT22;150;52.352;14.058;2023-03-23T09:37:09;15.40;44.10
326;DHT22;150;52.352;14.058;2023-03-23T09:39:38;15.60;44.40
326;DHT22;150;52.352;14.058;2023-03-23T09:42:14;15.70;43.20
326;DHT22;150;52.352;14.058;2023-03-23T09:44:56;15.80;43.50
326;DHT22;150;52.352;14.058;2023-03-23T09:47:29;15.70;41.70
326;DHT22;150;52.352;14.058;2023-03-23T09:50:06;15.70;42.80
326;DHT22;150;52.352;14.058;2023-03-23T09:52:38;15.60;41.60
326;DHT22;150;52.352;14.058;2023-03-23T09:55:09;15.70;41.80
326;DHT22;150;52.352;14.058;2023-03-23T09:57:42;15.80;42.40
326;DHT22;150;52.352;14.058;2023-03-23T10:00:14;15.90;40.70
326;DHT22;150;52.352;14.058;2023-03-23T10:02:48;15.90;39.50
326;DHT22;150;52.352;14.058;2023-03-23T10:05:29;15.90;39.80
326;DHT22;150;52.352;14.058;2023-03-23T10:07:56;15.90;39.40
326;DHT22;150;52.352;14.058;2023-03-23T10:10:31;15.80;39.50
326;DHT22;150;52.352;14.058;2023-03-23T10:13:03;15.90;40.30
326;DHT22;150;52.352;14.058;2023-03-23T10:15:33;16.10;39.50
326;DHT22;150;52.352;14.058;2023-03-23T10:18:02;16.20;38.60
326;DHT22;150;52.352;14.058;2023-03-23T10:20:40;16.30;38.00
326;DHT22;150;52.352;14.058;2023-03-23T10:23:15;16.20;37.90
326;DHT22;150;52.352;14.058;2023-03-23T10:25:45;16.20;38.50
326;DHT22;150;52.352;14.058;2023-03-23T10:28:16;16.30;38.00
326;DHT22;150;52.352;14.058;2023-03-23T10:30:46;16.30;37.30
326;DHT22;150;52.352;14.058;2023-03-23T10:33:19;16.50;37.40
326;DHT22;150;52.352;14.058;2023-03-23T10:35:55;16.60;36.20
326;DHT22;150;52.352;14.058;2023-03-23T10:38:29;16.70;35.80
326;DHT22;150;52.352;14.058;2023-03-23T10:41:01;16.70;35.60
326;DHT22;150;52.352;14.058;2023-03-23T10:43:30;17.00;35.00
326;DHT22;150;52.352;14.058;2023-03-23T10:46:01;17.20;33.20
326;DHT22;150;52.352;14.058;2023-03-23T10:48:31;17.10;33.60
326;DHT22;150;52.352;14.058;2023-03-23T10:51:03;17.10;33.10
326;DHT22;150;52.352;14.058;2023-03-23T10:53:33;17.00;32.70
326;DHT22;150;52.352;14.058;2023-03-23T10:56:01;17.20;32.40
326;DHT22;150;52.352;14.058;2023-03-23T10:58:29;17.00;31.30
326;DHT22;150;52.352;14.058;2023-03-23T11:00:57;16.90;32.20
326;DHT22;150;52.352;14.058;2023-03-23T11:03:32;17.00;31.40
326;DHT22;150;52.352;14.058;2023-03-23T11:06:02;16.90;31.40
326;DHT22;150;52.352;14.058;2023-03-23T11:08:32;16.80;32.20
326;DHT22;150;52.352;14.058;2023-03-23T11:11:09;16.80;32.70
326;DHT22;150;52.352;14.058;2023-03-23T11:13:42;16.80;32.40
326;DHT22;150;52.352;14.058;2023-03-23T11:16:10;16.90;31.00
326;DHT22;150;52.352;14.058;2023-03-23T11:18:47;17.00;31.20
326;DHT22;150;52.352;14.058;2023-03-23T11:21:16;17.10;30.80
326;DHT22;150;52.352;14.058;2023-03-23T11:23:47;17.00;30.20
326;DHT22;150;52.352;14.058;2023-03-23T11:26:16;16.90;30.60
326;DHT22;150;52.352;14.058;2023-03-23T11:28:46;17.00;30.50
326;DHT22;150;52.352;14.058;2023-03-23T11:31:15;16.90;30.00
326;DHT22;150;52.352;14.058;2023-03-23T11:33:52;17.00;30.60
326;DHT22;150;52.352;14.058;2023-03-23T11:36:29;17.20;30.60
326;DHT22;150;52.352;14.058;2023-03-23T11:38:57;17.20;30.40
326;DHT22;150;52.352;14.058;2023-03-23T11:41:30;17.20;30.00
326;DHT22;150;52.352;14.058;2023-03-23T11:44:03;17.20;29.90
326;DHT22;150;52.352;14.058;2023-03-23T11:46:41;17.20;30.10
326;DHT22;150;52.352;14.058;2023-03-23T11:49:15;17.20;29.20
326;DHT22;150;52.352;14.058;2023-03-23T11:51:49;17.20;29.70
326;DHT22;150;52.352;14.058;2023-03-23T11:54:24;17.30;29.80
326;DHT22;150;52.352;14.058;2023-03-23T11:56:52;17.40;28.80
326;DHT22;150;52.352;14.058;2023-03-23T11:59:35;17.50;29.30
326;DHT22;150;52.352;14.058;2023-03-23T12:05:19;17.60;28.70
326;DHT22;150;52.352;14.058;2023-03-23T12:07:53;17.80;28.80
326;DHT22;150;52.352;14.058;2023-03-23T12:10:27;17.80;28.00
326;DHT22;150;52.352;14.058;2023-03-23T12:13:05;17.80;28.30
326;DHT22;150;52.352;14.058;2023-03-23T12:15:41;17.80;28.30
326;DHT22;150;52.352;14.058;2023-03-23T12:18:16;17.90;28.70
326;DHT22;150;52.352;14.058;2023-03-23T12:20:53;17.90;27.60
326;DHT22;150;52.352;14.058;2023-03-23T12:23:28;17.80;27.50
326;DHT22;150;52.352;14.058;2023-03-23T12:26:12;17.80;27.30
326;DHT22;150;52.352;14.058;2023-03-23T12:28:59;17.80;27.90
326;DHT22;150;52.352;14.058;2023-03-23T12:31:32;17.60;27.10
326;DHT22;150;52.352;14.058;2023-03-23T12:34:06;17.60;27.50
326;DHT22;150;52.352;14.058;2023-03-23T12:36:46;17.70;27.00
326;DHT22;150;52.352;14.058;2023-03-23T12:42:39;17.80;27.10
326;DHT22;150;52.352;14.058;2023-03-23T12:45:19;17.90;26.80
326;DHT22;150;52.352;14.058;2023-03-23T12:47:51;18.00;26.30
326;DHT22;150;52.352;14.058;2023-03-23T12:50:24;18.00;25.90
326;DHT22;150;52.352;14.058;2023-03-23T12:52:57;18.00;25.30
326;DHT22;150;52.352;14.058;2023-03-23T12:55:31;18.00;25.20
326;DHT22;150;52.352;14.058;2023-03-23T12:58:02;17.80;25.40
326;DHT22;150;52.352;14.058;2023-03-23T13:00:50;17.80;25.70
326;DHT22;150;52.352;14.058;2023-03-23T13:03:23;17.90;25.80
326;DHT22;150;52.352;14.058;2023-03-23T13:05:57;18.10;26.00
326;DHT22;150;52.352;14.058;2023-03-23T13:08:30;18.20;25.50
326;DHT22;150;52.352;14.058;2023-03-23T13:11:03;18.20;25.00
326;DHT22;150;52.352;14.058;2023-03-23T13:13:44;18.10;24.80
326;DHT22;150;52.352;14.058;2023-03-23T13:16:16;17.90;25.50
326;DHT22;150;52.352;14.058;2023-03-23T13:18:49;18.00;25.70
326;DHT22;150;52.352;14.058;2023-03-23T13:21:21;18.00;24.70
326;DHT22;150;52.352;14.058;2023-03-23T13:23:54;17.90;25.20
326;DHT22;150;52.352;14.058;2023-03-23T13:26:23;18.00;24.90
326;DHT22;150;52.352;14.058;2023-03-23T13:28:58;18.00;24.80
326;DHT22;150;52.352;14.058;2023-03-23T13:31:29;18.00;25.20
326;DHT22;150;52.352;14.058;2023-03-23T13:34:01;18.10;24.80
326;DHT22;150;52.352;14.058;2023-03-23T13:36:30;18.30;24.80
326;DHT22;150;52.352;14.058;2023-03-23T13:38:59;18.40;24.30
326;DHT22;150;52.352;14.058;2023-03-23T13:41:28;18.40;23.90
326;DHT22;150;52.352;14.058;2023-03-23T13:44:16;18.30;24.20
326;DHT22;150;52.352;14.058;2023-03-23T13:46:55;18.40;24.20
326;DHT22;150;52.352;14.058;2023-03-23T13:49:24;18.20;23.40
326;DHT22;150;52.352;14.058;2023-03-23T13:52:00;18.00;23.90
326;DHT22;150;52.352;14.058;2023-03-23T13:54:39;18.00;24.00
326;DHT22;150;52.352;14.058;2023-03-23T13:57:35;17.90;24.10
326;DHT22;150;52.352;14.058;2023-03-23T14:00:25;17.80;24.40
326;DHT22;150;52.352;14.058;2023-03-23T14:02:58;17.90;24.60
326;DHT22;150;52.352;14.058;2023-03-23T14:05:32;17.90;24.60
326;DHT22;150;52.352;14.058;2023-03-23T14:08:02;17.90;24.60
326;DHT22;150;52.352;14.058;2023-03-23T14:10:34;17.80;23.90
326;DHT22;150;52.352;14.058;2023-03-23T14:13:05;17.80;24.10
326;DHT22;150;52.352;14.058;2023-03-23T14:15:42;17.80;24.10
326;DHT22;150;52.352;14.058;2023-03-23T14:18:14;17.80;23.90
326;DHT22;150;52.352;14.058;2023-03-23T14:20:42;17.80;24.50
326;DHT22;150;52.352;14.058;2023-03-23T14:23:15;18.00;24.50
326;DHT22;150;52.352;14.058;2023-03-23T14:25:43;18.10;24.00
326;DHT22;150;52.352;14.058;2023-03-23T14:28:18;18.20;24.10
326;DHT22;150;52.352;14.058;2023-03-23T14:30:51;18.20;23.20
326;DHT22;150;52.352;14.058;2023-03-23T14:33:19;18.30;23.70
326;DHT22;150;52.352;14.058;2023-03-23T14:35:47;18.40;23.70
326;DHT22;150;52.352;14.058;2023-03-23T14:38:16;18.30;22.80
326;DHT22;150;52.352;14.058;2023-03-23T14:40:43;18.20;23.40
326;DHT22;150;52.352;14.058;2023-03-23T14:43:12;18.20;23.00
326;DHT22;150;52.352;14.058;2023-03-23T14:45:42;18.20;23.20
326;DHT22;150;52.352;14.058;2023-03-23T14:48:13;18.30;23.10
326;DHT22;150;52.352;14.058;2023-03-23T14:50:48;18.30;22.90
326;DHT22;150;52.352;14.058;2023-03-23T14:53:19;18.30;22.60
326;DHT22;150;52.352;14.058;2023-03-23T14:55:47;18.20;22.20
326;DHT22;150;52.352;14.058;2023-03-23T14:58:17;18.20;23.00
326;DHT22;150;52.352;14.058;2023-03-23T15:00:49;18.10;22.10
326;DHT22;150;52.352;14.058;2023-03-23T15:03:17;17.90;22.00
326;DHT22;150;52.352;14.058;2023-03-23T15:05:47;17.80;22.90
326;DHT22;150;52.352;14.058;2023-03-23T15:08:19;17.60;22.50
326;DHT22;150;52.352;14.058;2023-03-23T15:10:54;17.40;23.00
326;DHT22;150;52.352;14.058;2023-03-23T15:13:21;17.40;22.90
326;DHT22;150;52.352;14.058;2023-03-23T15:15:49;17.40;22.90
326;DHT22;150;52.352;14.058;2023-03-23T15:18:32;17.40;23.30
326;DHT22;150;52.352;14.058;2023-03-23T15:21:08;17.50;23.30
326;DHT22;150;52.352;14.058;2023-03-23T15:23:41;17.50;23.30
326;DHT22;150;52.352;14.058;2023-03-23T15:26:21;17.50;23.40
326;DHT22;150;52.352;14.058;2023-03-23T15:28:49;17.50;23.20
326;DHT22;150;52.352;14.058;2023-03-23T15:31:17;17.50;22.70
326;DHT22;150;52.352;14.058;2023-03-23T15:33:43;17.40;22.90
326;DHT22;150;52.352;14.058;2023-03-23T15:36:16;17.30;22.60
326;DHT22;150;52.352;14.058;2023-03-23T15:38:44;17.30;22.90
326;DHT22;150;52.352;14.058;2023-03-23T15:41:21;17.10;22.90
326;DHT22;150;52.352;14.058;2023-03-23T15:43:51;17.00;23.00
326;DHT22;150;52.352;14.058;2023-03-23T15:46:24;17.00;23.00
326;DHT22;150;52.352;14.058;2023-03-23T15:48:52;16.90;23.20
326;DHT22;150;52.352;14.058;2023-03-23T15:51:21;17.00;23.20
326;DHT22;150;52.352;14.058;2023-03-23T15:53:50;17.00;23.10
326;DHT22;150;52.352;14.058;2023-03-23T15:56:17;16.90;23.10
326;DHT22;150;52.352;14.058;2023-03-23T15:58:44;16.90;23.60
326;DHT22;150;52.352;14.058;2023-03-23T16:01:12;16.90;23.50
326;DHT22;150;52.352;14.058;2023-03-23T16:03:43;17.00;23.40
326;DHT22;150;52.352;14.058;2023-03-23T16:06:11;16.90;23.30
326;DHT22;150;52.352;14.058;2023-03-23T16:08:38;16.90;23.60
326;DHT22;150;52.352;14.058;2023-03-23T16:11:06;16.80;23.50
326;DHT22;150;52.352;14.058;2023-03-23T16:13:33;16.90;23.70
326;DHT22;150;52.352;14.058;2023-03-23T16:16:00;16.90;23.20
326;DHT22;150;52.352;14.058;2023-03-23T16:18:27;16.90;23.30
326;DHT22;150;52.352;14.058;2023-03-23T16:20:55;16.90;23.50
326;DHT22;150;52.352;14.058;2023-03-23T16:23:22;17.00;23.60
326;DHT22;150;52.352;14.058;2023-03-23T16:25:49;17.00;22.90
326;DHT22;150;52.352;14.058;2023-03-23T16:28:16;17.00;23.10
326;DHT22;150;52.352;14.058;2023-03-23T16:30:43;17.00;23.10
326;DHT22;150;52.352;14.058;2023-03-23T16:33:10;16.90;22.90
326;DHT22;150;52.352;14.058;2023-03-23T16:35:37;16.90;22.90
326;DHT22;150;52.352;14.058;2023-03-23T16:38:05;16.90;22.40
326;DHT22;150;52.352;14.058;2023-03-23T16:40:32;16.70;22.90
326;DHT22;150;52.352;14.058;2023-03-23T16:42:59;16.60;22.80
326;DHT22;150;52.352;14.058;2023-03-23T16:45:25;16.60;23.30
326;DHT22;150;52.352;14.058;2023-03-23T16:47:52;16.50;23.20
326;DHT22;150;52.352;14.058;2023-03-23T16:50:20;16.50;23.40